sensor_id;sensor_type;location;lat;lon;timestamp;temperature;humidity
810;DHT22;387;48.772;9.186;2023-03-01T00:01:11;0.10;77.70
810;DHT22;387;48.772;9.186;2023-03-01T00:03:37;0.10;77.70
810;DHT22;387;48.772;9.186;2023-03-01T00:06:04;0.10;77.70
810;DHT22;387;48.772;9.186;2023-03-01T00:08:30;0.20;77.60
810;DHT22;387;48.772;9.186;2023-03-01T00:13:33;0.10;77.70
810;DHT22;387;48.772;9.186;2023-03-01T00:16:02;0.10;77.80
810;DHT22;387;48.772;9.186;2023-03-01T00:18:28;0.10;77.80
810;DHT22;387;48.772;9.186;2023-03-01T00:20:57;0.10;77.80
810;DHT22;387;48.772;9.186;2023-03-01T00:23:23;0.00;77.80
810;DHT22;387;48.772;9.186;2023-03-01T00:25:49;0.00;77.80
810;DHT22;387;48.772;9.186;2023-03-01T00:28:19;0.00;77.80
810;DHT22;387;48.772;9.186;2023-03-01T00:30:45;0.00;78.00
810;DHT22;387;48.772;9.186;2023-03-01T00:33:10;0.00;78.00
810;DHT22;387;48.772;9.186;2023-03-01T00:35:36;0.00;78.00
810;DHT22;387;48.772;9.186;2023-03-01T00:38:02;-0.10;77.80
810;DHT22;387;48.772;9.186;2023-03-01T00:40:28;-0.10;78.00
810;DHT22;387;48.772;9.186;2023-03-01T00:42:54;-0.10;78.10
810;DHT22;387;48.772;9.186;2023-03-01T00:45:20;-0.10;78.10
810;DHT22;387;48.772;9.186;2023-03-01T00:47:46;-0.20;78.10
810;DHT22;387;48.772;9.186;2023-03-01T00:50:13;-0.20;78.30
810;DHT22;387;48.772;9.186;2023-03-01T00:52:39;-0.20;78.30
810;DHT22;387;48.772;9.186;2023-03-01T00:55:05;-0.20;78.40
810;DHT22;387;48.772;9.186;2023-03-01T00:57:31;-0.30;78.40
810;DHT22;387;48.772;9.186;2023-03-01T00:59:56;-0.30;78.60
810;DHT22;387;48.772;9.186;2023-03-01T01:02:22;-0.30;78.60
810;DHT22;387;48.772;9.186;2023-03-01T01:04:48;-0.30;79.00
810;DHT22;387;48.772;9.186;2023-03-01T01:07:14;-0.30;78.70
810;DHT22;387;48.772;9.186;2023-03-01T01:09:40;-0.40;79.00
810;DHT22;387;48.772;9.186;2023-03-01T01:12:06;-0.40;79.00
810;DHT22;387;48.772;9.186;2023-03-01T01:14:32;-0.40;79.00
810;DHT22;387;48.772;9.186;2023-03-01T01:16:58;-0.50;79.00
810;DHT22;387;48.772;9.186;2023-03-01T01:19:24;-0.50;79.20
810;DHT22;387;48.772;9.186;2023-03-01T01:21:50;-0.50;79.30
810;DHT22;387;48.772;9.186;2023-03-01T01:24:16;-0.40;79.50
810;DHT22;387;48.772;9.186;2023-03-01T01:26:43;-0.40;79.30
810;DHT22;387;48.772;9.186;2023-03-01T01:29:09;-0.40;79.30
810;DHT22;387;48.772;9.186;2023-03-01T01:31:36;-0.50;79.50
810;DHT22;387;48.772;9.186;2023-03-01T01:34:04;-0.40;79.50
810;DHT22;387;48.772;9.186;2023-03-01T01:36:31;-0.40;79.30
810;DHT22;387;48.772;9.186;2023-03-01T01:38:57;-0.30;78.70
810;DHT22;387;48.772;9.186;2023-03-01T01:41:23;-0.20;78.10
810;DHT22;387;48.772;9.186;2023-03-01T01:44:13;-0.20;77.80
810;DHT22;387;48.772;9.186;2023-03-01T01:47:03;-0.20;77.70
810;DHT22;387;48.772;9.186;2023-03-01T01:49:51;-0.20;77.70
810;DHT22;387;48.772;9.186;2023-03-01T01:52:24;-0.10;77.60
810;DHT22;387;48.772;9.186;2023-03-01T01:55:19;-0.10;77.40
810;DHT22;387;48.772;9.186;2023-03-01T01:57:52;-0.20;77.60
810;DHT22;387;48.772;9.186;2023-03-01T02:00:24;-0.20;77.80
810;DHT22;387;48.772;9.186;2023-03-01T02:02:55;-0.10;78.10
810;DHT22;387;48.772;9.186;2023-03-01T02:05:42;-0.10;78.10
810;DHT22;387;48.772;9.186;2023-03-01T02:08:12;0.00;78.30
810;DHT22;387;48.772;9.186;2023-03-01T02:10:38;0.00;78.00
810;DHT22;387;48.772;9.186;2023-03-01T02:13:04;0.10;78.00
810;DHT22;387;48.772;9.186;2023-03-01T02:15:34;0.10;77.70
810;DHT22;387;48.772;9.186;2023-03-01T02:18:02;0.10;77.80
810;DHT22;387;48.772;9.186;2023-03-01T02:23:10;0.30;77.40
810;DHT22;387;48.772;9.186;2023-03-01T02:30:42;0.40;76.80
810;DHT22;387;48.772;9.186;2023-03-01T02:33:30;0.30;76.20
810;DHT22;387;48.772;9.186;2023-03-01T02:36:00;0.30;76.40
810;DHT22;387;48.772;9.186;2023-03-01T02:38:27;0.30;76.40
810;DHT22;387;48.772;9.186;2023-03-01T02:40:54;0.40;76.40
810;DHT22;387;48.772;9.186;2023-03-01T02:43:26;0.30;76.20
810;DHT22;387;48.772;9.186;2023-03-01T02:45:57;0.20;76.40
810;DHT22;387;48.772;9.186;2023-03-01T02:48:22;0.20;76.70
810;DHT22;387;48.772;9.186;2023-03-01T02:56:05;0.30;77.00
810;DHT22;387;48.772;9.186;2023-03-01T02:58:31;0.40;76.80
810;DHT22;387;48.772;9.186;2023-03-01T03:00:56;0.40;76.50
810;DHT22;387;48.772;9.186;2023-03-01T03:03:22;0.40;76.50
810;DHT22;387;48.772;9.186;2023-03-01T03:05:48;0.30;76.40
810;DHT22;387;48.772;9.186;2023-03-01T03:08:14;0.20;76.50
810;DHT22;387;48.772;9.186;2023-03-01T03:10:48;0.20;76.70
810;DHT22;387;48.772;9.186;2023-03-01T03:13:14;0.20;77.00
810;DHT22;387;48.772;9.186;2023-03-01T03:15:42;0.20;76.80
810;DHT22;387;48.772;9.186;2023-03-01T03:18:11;0.20;76.80
810;DHT22;387;48.772;9.186;2023-03-01T03:20:40;0.20;76.80
810;DHT22;387;48.772;9.186;2023-03-01T03:23:06;0.30;76.80
810;DHT22;387;48.772;9.186;2023-03-01T03:25:31;0.30;76.80
810;DHT22;387;48.772;9.186;2023-03-01T03:27:57;0.30;77.00
810;DHT22;387;48.772;9.186;2023-03-01T03:30:26;0.50;77.00
810;DHT22;387;48.772;9.186;2023-03-01T03:32:52;0.50;76.50
810;DHT22;387;48.772;9.186;2023-03-01T03:35:23;0.50;76.70
810;DHT22;387;48.772;9.186;2023-03-01T03:37:50;0.60;76.40
810;DHT22;387;48.772;9.186;2023-03-01T03:40:31;0.60;76.40
810;DHT22;387;48.772;9.186;2023-03-01T03:42:57;0.70;76.40
810;DHT22;387;48.772;9.186;2023-03-01T03:45:23;0.70;76.40
810;DHT22;387;48.772;9.186;2023-03-01T03:47:49;0.80;76.50
810;DHT22;387;48.772;9.186;2023-03-01T03:50:16;0.80;76.20
810;DHT22;387;48.772;9.186;2023-03-01T03:52:42;0.80;76.20
810;DHT22;387;48.772;9.186;2023-03-01T03:55:10;0.80;76.20
810;DHT22;387;48.772;9.186;2023-03-01T03:57:40;0.80;75.90
810;DHT22;387;48.772;9.186;2023-03-01T04:00:10;0.80;75.90
810;DHT22;387;48.772;9.186;2023-03-01T04:02:43;0.80;76.10
810;DHT22;387;48.772;9.186;2023-03-01T04:05:10;0.60;75.90
810;DHT22;387;48.772;9.186;2023-03-01T04:07:37;0.70;76.10
810;DHT22;387;48.772;9.186;2023-03-01T04:10:04;0.70;76.10
810;DHT22;387;48.772;9.186;2023-03-01T04:12:30;0.60;76.10
810;DHT22;387;48.772;9.186;2023-03-01T04:14:56;0.60;76.40
810;DHT22;387;48.772;9.186;2023-03-01T04:17:21;0.50;76.50
810;DHT22;387;48.772;9.186;2023-03-01T04:19:47;0.60;76.50
810;DHT22;387;48.772;9.186;2023-03-01T04:22:14;0.60;76.40
810;DHT22;387;48.772;9.186;2023-03-01T04:24:44;0.60;76.40
810;DHT22;387;48.772;9.186;2023-03-01T04:27:11;0.50;76.70
810;DHT22;387;48.772;9.186;2023-03-01T04:29:36;0.50;76.80
810;DHT22;387;48.772;9.186;2023-03-01T04:32:02;0.60;76.80
810;DHT22;387;48.772;9.186;2023-03-01T04:34:29;0.70;76.50
810;DHT22;387;48.772;9.186;2023-03-01T04:36:54;0.70;76.50
810;DHT22;387;48.772;9.186;2023-03-01T04:39:20;0.80;76.40
810;DHT22;387;48.772;9.186;2023-03-01T04:41:46;0.80;76.40
810;DHT22;387;48.772;9.186;2023-03-01T04:44:12;0.70;76.40
810;DHT22;387;48.772;9.186;2023-03-01T04:46:38;0.90;76.50
810;DHT22;387;48.772;9.186;2023-03-01T04:49:03;0.90;76.40
810;DHT22;387;48.772;9.186;2023-03-01T04:51:29;1.00;76.40
810;DHT22;387;48.772;9.186;2023-03-01T04:53:54;1.00;76.10
810;DHT22;387;48.772;9.186;2023-03-01T04:56:20;1.00;75.90
810;DHT22;387;48.772;9.186;2023-03-01T04:58:48;1.10;75.90
810;DHT22;387;48.772;9.186;2023-03-01T05:01:17;1.10;75.70
810;DHT22;387;48.772;9.186;2023-03-01T05:03:44;1.10;75.50
810;DHT22;387;48.772;9.186;2023-03-01T05:06:11;1.10;75.70
810;DHT22;387;48.772;9.186;2023-03-01T05:08:40;1.10;75.70
810;DHT22;387;48.772;9.186;2023-03-01T05:11:07;1.10;75.90
810;DHT22;387;48.772;9.186;2023-03-01T05:13:35;1.20;75.90
810;DHT22;387;48.772;9.186;2023-03-01T05:16:01;1.30;75.80
810;DHT22;387;48.772;9.186;2023-03-01T05:18:29;1.30;75.70
810;DHT22;387;48.772;9.186;2023-03-01T05:21:01;1.30;75.50
810;DHT22;387;48.772;9.186;2023-03-01T05:23:27;1.20;75.50
810;DHT22;387;48.772;9.186;2023-03-01T05:25:52;1.20;75.70
810;DHT22;387;48.772;9.186;2023-03-01T05:28:20;1.10;75.70
810;DHT22;387;48.772;9.186;2023-03-01T05:30:46;1.10;75.90
810;DHT22;387;48.772;9.186;2023-03-01T05:33:12;1.10;76.10
810;DHT22;387;48.772;9.186;2023-03-01T05:35:44;1.10;76.10
810;DHT22;387;48.772;9.186;2023-03-01T05:38:11;1.20;75.80
810;DHT22;387;48.772;9.186;2023-03-01T05:40:45;1.20;75.80
810;DHT22;387;48.772;9.186;2023-03-01T05:43:13;1.20;75.80
810;DHT22;387;48.772;9.186;2023-03-01T05:45:39;1.20;75.70
810;DHT22;387;48.772;9.186;2023-03-01T05:48:06;1.20;75.70
810;DHT22;387;48.772;9.186;2023-03-01T05:50:35;1.20;75.80
810;DHT22;387;48.772;9.186;2023-03-01T05:53:07;1.20;75.80
810;DHT22;387;48.772;9.186;2023-03-01T05:55:35;1.20;75.90
810;DHT22;387;48.772;9.186;2023-03-01T05:58:03;1.30;75.80
810;DHT22;387;48.772;9.186;2023-03-01T06:00:29;1.20;75.50
810;DHT22;387;48.772;9.186;2023-03-01T06:02:56;1.20;75.50
810;DHT22;387;48.772;9.186;2023-03-01T06:05:22;1.10;75.70
810;DHT22;387;48.772;9.186;2023-03-01T06:07:48;1.10;75.90
810;DHT22;387;48.772;9.186;2023-03-01T06:10:16;1.20;75.80
810;DHT22;387;48.772;9.186;2023-03-01T06:12:42;1.20;75.80
810;DHT22;387;48.772;9.186;2023-03-01T06:15:11;1.20;75.70
810;DHT22;387;48.772;9.186;2023-03-01T06:17:39;1.10;75.70
810;DHT22;387;48.772;9.186;2023-03-01T06:20:08;1.00;76.10
810;DHT22;387;48.772;9.186;2023-03-01T06:22:35;1.00;76.20
810;DHT22;387;48.772;9.186;2023-03-01T06:25:01;1.00;76.40
810;DHT22;387;48.772;9.186;2023-03-01T06:27:27;1.10;76.20
810;DHT22;387;48.772;9.186;2023-03-01T06:29:52;1.10;76.10
810;DHT22;387;48.772;9.186;2023-03-01T06:32:18;1.20;75.90
810;DHT22;387;48.772;9.186;2023-03-01T06:34:43;1.20;75.80
810;DHT22;387;48.772;9.186;2023-03-01T06:37:09;1.10;75.70
810;DHT22;387;48.772;9.186;2023-03-01T06:39:35;1.10;76.10
810;DHT22;387;48.772;9.186;2023-03-01T06:42:00;1.20;76.20
810;DHT22;387;48.772;9.186;2023-03-01T06:44:26;1.20;76.10
810;DHT22;387;48.772;9.186;2023-03-01T06:46:52;1.20;75.70
810;DHT22;387;48.772;9.186;2023-03-01T06:49:17;1.20;75.90
810;DHT22;387;48.772;9.186;2023-03-01T06:51:43;1.10;75.90
810;DHT22;387;48.772;9.186;2023-03-01T06:54:09;1.10;75.90
810;DHT22;387;48.772;9.186;2023-03-01T06:56:35;1.10;76.20
810;DHT22;387;48.772;9.186;2023-03-01T06:59:01;1.20;75.90
810;DHT22;387;48.772;9.186;2023-03-01T07:01:28;1.20;75.90
810;DHT22;387;48.772;9.186;2023-03-01T07:03:54;1.10;75.90
810;DHT22;387;48.772;9.186;2023-03-01T07:06:20;1.10;75.70
810;DHT22;387;48.772;9.186;2023-03-01T07:08:46;1.00;76.10
810;DHT22;387;48.772;9.186;2023-03-01T07:11:11;1.00;76.10
810;DHT22;387;48.772;9.186;2023-03-01T07:13:37;1.00;76.20
810;DHT22;387;48.772;9.186;2023-03-01T07:16:03;1.00;76.10
810;DHT22;387;48.772;9.186;2023-03-01T07:18:28;0.90;76.10
810;DHT22;387;48.772;9.186;2023-03-01T07:20:54;0.80;76.20
810;DHT22;387;48.772;9.186;2023-03-01T07:23:20;0.80;76.40
810;DHT22;387;48.772;9.186;2023-03-01T07:25:52;0.80;76.50
810;DHT22;387;48.772;9.186;2023-03-01T07:28:18;0.80;76.40
810;DHT22;387;48.772;9.186;2023-03-01T07:30:43;0.80;76.50
810;DHT22;387;48.772;9.186;2023-03-01T07:33:10;0.90;76.50
810;DHT22;387;48.772;9.186;2023-03-01T07:35:35;0.90;76.40
810;DHT22;387;48.772;9.186;2023-03-01T07:38:01;0.90;76.40
810;DHT22;387;48.772;9.186;2023-03-01T07:40:26;0.90;76.20
810;DHT22;387;48.772;9.186;2023-03-01T07:42:58;0.90;76.20
810;DHT22;387;48.772;9.186;2023-03-01T07:45:28;0.90;76.20
810;DHT22;387;48.772;9.186;2023-03-01T07:47:54;0.90;76.20
810;DHT22;387;48.772;9.186;2023-03-01T07:50:20;0.90;76.20
810;DHT22;387;48.772;9.186;2023-03-01T07:52:47;0.90;76.20
810;DHT22;387;48.772;9.186;2023-03-01T07:55:13;0.90;76.40
810;DHT22;387;48.772;9.186;2023-03-01T07:57:39;1.00;76.40
810;DHT22;387;48.772;9.186;2023-03-01T08:00:06;1.00;76.20
810;DHT22;387;48.772;9.186;2023-03-01T08:02:31;1.00;76.10
810;DHT22;387;48.772;9.186;2023-03-01T08:04:57;1.00;75.90
810;DHT22;387;48.772;9.186;2023-03-01T08:07:23;0.90;76.10
810;DHT22;387;48.772;9.186;2023-03-01T08:09:48;1.00;76.20
810;DHT22;387;48.772;9.186;2023-03-01T08:12:14;0.90;76.10
810;DHT22;387;48.772;9.186;2023-03-01T08:14:41;0.90;76.20
810;DHT22;387;48.772;9.186;2023-03-01T08:17:07;1.00;76.20
810;DHT22;387;48.772;9.186;2023-03-01T08:19:32;1.10;76.20
810;DHT22;387;48.772;9.186;2023-03-01T08:22:01;1.10;75.90
810;DHT22;387;48.772;9.186;2023-03-01T08:24:27;1.20;75.70
810;DHT22;387;48.772;9.186;2023-03-01T08:26:53;1.20;75.70
810;DHT22;387;48.772;9.186;2023-03-01T08:29:19;1.20;75.80
810;DHT22;387;48.772;9.186;2023-03-01T08:31:44;1.30;75.70
810;DHT22;387;48.772;9.186;2023-03-01T08:34:13;1.30;75.50
810;DHT22;387;48.772;9.186;2023-03-01T08:36:41;1.30;75.40
810;DHT22;387;48.772;9.186;2023-03-01T08:39:09;1.40;75.40
810;DHT22;387;48.772;9.186;2023-03-01T08:41:34;1.40;75.20
810;DHT22;387;48.772;9.186;2023-03-01T08:44:00;1.40;75.20
810;DHT22;387;48.772;9.186;2023-03-01T08:46:32;1.40;75.10
810;DHT22;387;48.772;9.186;2023-03-01T08:48:58;1.40;75.40
810;DHT22;387;48.772;9.186;2023-03-01T08:51:25;1.40;75.20
810;DHT22;387;48.772;9.186;2023-03-01T08:53:51;1.30;74.90
810;DHT22;387;48.772;9.186;2023-03-01T08:56:17;1.30;75.40
810;DHT22;387;48.772;9.186;2023-03-01T08:58:45;1.40;75.20
810;DHT22;387;48.772;9.186;2023-03-01T09:01:14;1.50;75.20
810;DHT22;387;48.772;9.186;2023-03-01T09:03:40;1.60;74.80
810;DHT22;387;48.772;9.186;2023-03-01T09:06:07;1.70;74.80
810;DHT22;387;48.772;9.186;2023-03-01T09:08:41;1.70;74.30
810;DHT22;387;48.772;9.186;2023-03-01T09:11:09;1.70;74.30
810;DHT22;387;48.772;9.186;2023-03-01T09:13:35;1.80;74.80
810;DHT22;387;48.772;9.186;2023-03-01T09:16:02;1.90;74.90
810;DHT22;387;48.772;9.186;2023-03-01T09:18:28;2.00;74.00
810;DHT22;387;48.772;9.186;2023-03-01T09:21:11;2.20;74.00
810;DHT22;387;48.772;9.186;2023-03-01T09:23:41;2.20;73.50
810;DHT22;387;48.772;9.186;2023-03-01T09:26:19;2.20;73.30
810;DHT22;387;48.772;9.186;2023-03-01T09:28:47;2.30;73.50
810;DHT22;387;48.772;9.186;2023-03-01T09:31:13;2.40;73.00
810;DHT22;387;48.772;9.186;2023-03-01T09:33:41;2.40;73.20
810;DHT22;387;48.772;9.186;2023-03-01T09:36:11;2.50;72.70
810;DHT22;387;48.772;9.186;2023-03-01T09:38:37;2.60;72.70
810;DHT22;387;48.772;9.186;2023-03-01T09:41:08;2.70;72.90
810;DHT22;387;48.772;9.186;2023-03-01T09:43:44;2.80;72.40
810;DHT22;387;48.772;9.186;2023-03-01T09:46:13;3.00;71.60
810;DHT22;387;48.772;9.186;2023-03-01T09:49:03;3.00;71.60
810;DHT22;387;48.772;9.186;2023-03-01T09:51:33;3.10;71.30
810;DHT22;387;48.772;9.186;2023-03-01T09:54:01;3.10;70.50
810;DHT22;387;48.772;9.186;2023-03-01T09:59:25;3.20;70.40
810;DHT22;387;48.772;9.186;2023-03-01T10:09:47;3.40;68.30
810;DHT22;387;48.772;9.186;2023-03-01T10:12:30;3.50;68.20
810;DHT22;387;48.772;9.186;2023-03-01T10:15:07;3.60;67.90
810;DHT22;387;48.772;9.186;2023-03-01T10:17:39;3.60;67.70
810;DHT22;387;48.772;9.186;2023-03-01T10:20:23;3.70;67.60
810;DHT22;387;48.772;9.186;2023-03-01T10:22:49;3.70;67.20
810;DHT22;387;48.772;9.186;2023-03-01T10:25:47;3.70;67.60
810;DHT22;387;48.772;9.186;2023-03-01T10:30:50;3.80;67.30
810;DHT22;387;48.772;9.186;2023-03-01T10:33:37;3.90;67.00
810;DHT22;387;48.772;9.186;2023-03-01T10:36:05;4.00;66.70
810;DHT22;387;48.772;9.186;2023-03-01T10:38:51;4.10;66.10
810;DHT22;387;48.772;9.186;2023-03-01T10:41:19;4.10;66.30
810;DHT22;387;48.772;9.186;2023-03-01T10:43:57;4.30;66.30
810;DHT22;387;48.772;9.186;2023-03-01T10:46:33;4.40;65.40
810;DHT22;387;48.772;9.186;2023-03-01T10:49:18;4.60;64.80
810;DHT22;387;48.772;9.186;2023-03-01T10:51:50;4.80;64.10
810;DHT22;387;48.772;9.186;2023-03-01T10:54:18;5.00;63.20
810;DHT22;387;48.772;9.186;2023-03-01T10:56:59;5.40;62.30
810;DHT22;387;48.772;9.186;2023-03-01T10:59:36;5.80;61.20
810;DHT22;387;48.772;9.186;2023-03-01T11:02:20;6.10;59.90
810;DHT22;387;48.772;9.186;2023-03-01T11:05:22;6.30;58.70
810;DHT22;387;48.772;9.186;2023-03-01T11:07:55;6.60;58.50
810;DHT22;387;48.772;9.186;2023-03-01T11:10:30;6.80;57.20
810;DHT22;387;48.772;9.186;2023-03-01T11:13:14;6.90;56.50
810;DHT22;387;48.772;9.186;2023-03-01T11:15:40;7.10;56.60
810;DHT22;387;48.772;9.186;2023-03-01T11:18:19;7.10;55.80
810;DHT22;387;48.772;9.186;2023-03-01T11:20:45;7.00;56.50
810;DHT22;387;48.772;9.186;2023-03-01T11:23:14;7.20;56.10
810;DHT22;387;48.772;9.186;2023-03-01T11:25:54;7.50;56.00
810;DHT22;387;48.772;9.186;2023-03-01T11:28:21;7.90;54.00
810;DHT22;387;48.772;9.186;2023-03-01T11:30:54;7.90;53.70
810;DHT22;387;48.772;9.186;2023-03-01T11:36:32;7.30;55.20
810;DHT22;387;48.772;9.186;2023-03-01T11:42:45;7.30;55.70
810;DHT22;387;48.772;9.186;2023-03-01T11:45:12;7.30;55.40
810;DHT22;387;48.772;9.186;2023-03-01T11:48:02;7.30;55.30
810;DHT22;387;48.772;9.186;2023-03-01T11:50:47;7.40;55.40
810;DHT22;387;48.772;9.186;2023-03-01T11:53:29;7.40;55.20
810;DHT22;387;48.772;9.186;2023-03-01T11:58:45;7.70;54.80
810;DHT22;387;48.772;9.186;2023-03-01T12:06:56;8.30;53.20
810;DHT22;387;48.772;9.186;2023-03-01T12:12:11;8.50;52.60
810;DHT22;387;48.772;9.186;2023-03-01T12:31:30;9.60;49.50
810;DHT22;387;48.772;9.186;2023-03-01T12:37:04;9.10;50.50
810;DHT22;387;48.772;9.186;2023-03-01T12:39:51;8.70;51.40
810;DHT22;387;48.772;9.186;2023-03-01T12:42:25;8.30;52.80
810;DHT22;387;48.772;9.186;2023-03-01T12:51:11;8.80;52.40
810;DHT22;387;48.772;9.186;2023-03-01T12:53:32;9.00;51.70
810;DHT22;387;48.772;9.186;2023-03-01T12:56:06;8.70;51.80
810;DHT22;387;48.772;9.186;2023-03-01T13:10:08;8.70;52.80
810;DHT22;387;48.772;9.186;2023-03-01T13:28:42;9.90;49.90
810;DHT22;387;48.772;9.186;2023-03-01T13:33:55;10.30;49.30
810;DHT22;387;48.772;9.186;2023-03-01T13:38:59;10.30;48.50
810;DHT22;387;48.772;9.186;2023-03-01T13:44:33;9.50;50.50
810;DHT22;387;48.772;9.186;2023-03-01T13:49:52;9.40;50.30
810;DHT22;387;48.772;9.186;2023-03-01T13:52:42;9.30;50.90
810;DHT22;387;48.772;9.186;2023-03-01T13:57:53;9.10;52.10
810;DHT22;387;48.772;9.186;2023-03-01T14:00:38;9.20;52.10
810;DHT22;387;48.772;9.186;2023-03-01T14:03:18;9.20;52.10
810;DHT22;387;48.772;9.186;2023-03-01T14:05:59;9.30;52.20
810;DHT22;387;48.772;9.186;2023-03-01T14:08:27;9.60;51.40
810;DHT22;387;48.772;9.186;2023-03-01T14:10:54;9.30;52.00
810;DHT22;387;48.772;9.186;2023-03-01T14:16:19;8.70;53.60
810;DHT22;387;48.772;9.186;2023-03-01T14:21:15;8.50;54.10
810;DHT22;387;48.772;9.186;2023-03-01T14:23:41;8.50;54.20
810;DHT22;387;48.772;9.186;2023-03-01T14:26:08;8.30;54.80
810;DHT22;387;48.772;9.186;2023-03-01T14:28:36;8.20;55.30
810;DHT22;387;48.772;9.186;2023-03-01T14:31:37;8.20;55.60
810;DHT22;387;48.772;9.186;2023-03-01T14:34:03;8.40;55.30
810;DHT22;387;48.772;9.186;2023-03-01T14:36:31;8.40;55.00
810;DHT22;387;48.772;9.186;2023-03-01T14:38:56;8.50;55.60
810;DHT22;387;48.772;9.186;2023-03-01T14:41:32;8.70;54.90
810;DHT22;387;48.772;9.186;2023-03-01T14:44:07;8.80;54.50
810;DHT22;387;48.772;9.186;2023-03-01T14:46:40;8.90;54.40
810;DHT22;387;48.772;9.186;2023-03-01T14:49:13;8.80;54.50
810;DHT22;387;48.772;9.186;2023-03-01T14:51:42;8.80;54.60
810;DHT22;387;48.772;9.186;2023-03-01T14:54:26;8.90;54.60
810;DHT22;387;48.772;9.186;2023-03-01T14:56:54;8.90;54.40
810;DHT22;387;48.772;9.186;2023-03-01T14:59:23;9.00;54.10
810;DHT22;387;48.772;9.186;2023-03-01T15:01:51;9.10;53.40
810;DHT22;387;48.772;9.186;2023-03-01T15:04:18;9.10;53.20
810;DHT22;387;48.772;9.186;2023-03-01T15:06:45;9.10;53.30
810;DHT22;387;48.772;9.186;2023-03-01T15:09:14;9.00;53.60
810;DHT22;387;48.772;9.186;2023-03-01T15:11:41;9.10;53.70
810;DHT22;387;48.772;9.186;2023-03-01T15:14:41;9.10;53.60
810;DHT22;387;48.772;9.186;2023-03-01T15:17:27;8.90;54.00
810;DHT22;387;48.772;9.186;2023-03-01T15:19:54;8.70;54.80
810;DHT22;387;48.772;9.186;2023-03-01T15:22:21;8.70;55.00
810;DHT22;387;48.772;9.186;2023-03-01T15:24:48;8.80;54.90
810;DHT22;387;48.772;9.186;2023-03-01T15:27:17;8.80;54.80
810;DHT22;387;48.772;9.186;2023-03-01T15:29:49;8.90;54.80
810;DHT22;387;48.772;9.186;2023-03-01T15:32:32;8.90;54.60
810;DHT22;387;48.772;9.186;2023-03-01T15:35:00;8.80;54.60
810;DHT22;387;48.772;9.186;2023-03-01T15:37:46;8.90;54.80
810;DHT22;387;48.772;9.186;2023-03-01T15:40:27;9.10;54.20
810;DHT22;387;48.772;9.186;2023-03-01T15:43:03;9.10;53.80
810;DHT22;387;48.772;9.186;2023-03-01T15:45:30;9.00;54.00
810;DHT22;387;48.772;9.186;2023-03-01T15:48:03;9.10;53.40
810;DHT22;387;48.772;9.186;2023-03-01T15:50:32;9.00;53.40
810;DHT22;387;48.772;9.186;2023-03-01T15:53:00;8.90;53.70
810;DHT22;387;48.772;9.186;2023-03-01T15:55:28;8.90;53.60
810;DHT22;387;48.772;9.186;2023-03-01T15:58:21;8.80;53.40
810;DHT22;387;48.772;9.186;2023-03-01T16:00:48;8.70;53.70
810;DHT22;387;48.772;9.186;2023-03-01T16:03:15;8.70;53.80
810;DHT22;387;48.772;9.186;2023-03-01T16:05:48;8.50;54.10
810;DHT22;387;48.772;9.186;2023-03-01T16:08:14;8.40;54.20
810;DHT22;387;48.772;9.186;2023-03-01T16:10:40;8.30;54.60
810;DHT22;387;48.772;9.186;2023-03-01T16:13:09;8.20;54.60
810;DHT22;387;48.772;9.186;2023-03-01T16:15:35;8.20;54.80
810;DHT22;387;48.772;9.186;2023-03-01T16:18:02;8.10;55.20
810;DHT22;387;48.772;9.186;2023-03-01T16:20:29;8.00;55.40
810;DHT22;387;48.772;9.186;2023-03-01T16:22:57;8.00;55.40
810;DHT22;387;48.772;9.186;2023-03-01T16:25:23;7.90;55.30
810;DHT22;387;48.772;9.186;2023-03-01T16:27:50;7.80;55.60
810;DHT22;387;48.772;9.186;2023-03-01T16:30:18;7.80;55.70
810;DHT22;387;48.772;9.186;2023-03-01T16:32:45;7.70;55.80
810;DHT22;387;48.772;9.186;2023-03-01T16:35:12;7.70;56.20
810;DHT22;387;48.772;9.186;2023-03-01T16:37:38;7.60;56.10
810;DHT22;387;48.772;9.186;2023-03-01T16:40:04;7.60;56.20
810;DHT22;387;48.772;9.186;2023-03-01T16:42:35;7.60;56.40
810;DHT22;387;48.772;9.186;2023-03-01T16:45:00;7.50;56.60
810;DHT22;387;48.772;9.186;2023-03-01T16:47:27;7.50;56.90
810;DHT22;387;48.772;9.186;2023-03-01T16:49:53;7.50;57.00
810;DHT22;387;48.772;9.186;2023-03-01T16:52:19;7.50;57.20
810;DHT22;387;48.772;9.186;2023-03-01T16:54:45;7.40;57.20
810;DHT22;387;48.772;9.186;2023-03-01T16:57:11;7.40;57.20
810;DHT22;387;48.772;9.186;2023-03-01T16:59:37;7.30;57.30
810;DHT22;387;48.772;9.186;2023-03-01T17:02:08;7.30;57.30
810;DHT22;387;48.772;9.186;2023-03-01T17:04:35;7.30;57.70
810;DHT22;387;48.772;9.186;2023-03-01T17:07:01;7.20;57.80
810;DHT22;387;48.772;9.186;2023-03-01T17:09:26;7.20;58.10
810;DHT22;387;48.772;9.186;2023-03-01T17:11:52;7.10;58.20
810;DHT22;387;48.772;9.186;2023-03-01T17:14:17;7.10;58.40
810;DHT22;387;48.772;9.186;2023-03-01T17:16:43;7.00;58.80
810;DHT22;387;48.772;9.186;2023-03-01T17:19:10;7.00;59.10
810;DHT22;387;48.772;9.186;2023-03-01T17:21:36;7.00;59.50
810;DHT22;387;48.772;9.186;2023-03-01T17:24:02;7.00;59.70
810;DHT22;387;48.772;9.186;2023-03-01T17:26:29;6.90;59.90
810;DHT22;387;48.772;9.186;2023-03-01T17:28:55;6.90;60.10
810;DHT22;387;48.772;9.186;2023-03-01T17:31:22;6.80;60.40
810;DHT22;387;48.772;9.186;2023-03-01T17:33:48;6.80;60.70
810;DHT22;387;48.772;9.186;2023-03-01T17:36:15;6.80;61.00
810;DHT22;387;48.772;9.186;2023-03-01T17:38:40;6.70;61.20
810;DHT22;387;48.772;9.186;2023-03-01T17:41:06;6.60;61.70
810;DHT22;387;48.772;9.186;2023-03-01T17:43:35;6.50;62.30
810;DHT22;387;48.772;9.186;2023-03-01T17:46:01;6.50;62.60
810;DHT22;387;48.772;9.186;2023-03-01T17:48:26;6.40;63.10
810;DHT22;387;48.772;9.186;2023-03-01T17:51:06;6.30;63.50
810;DHT22;387;48.772;9.186;2023-03-01T17:53:32;6.30;63.70
810;DHT22;387;48.772;9.186;2023-03-01T17:56:00;6.10;64.40
810;DHT22;387;48.772;9.186;2023-03-01T17:58:26;6.10;64.70
810;DHT22;387;48.772;9.186;2023-03-01T18:00:52;6.00;65.30
810;DHT22;387;48.772;9.186;2023-03-01T18:03:17;5.90;65.70
810;DHT22;387;48.772;9.186;2023-03-01T18:05:43;5.80;66.30
810;DHT22;387;48.772;9.186;2023-03-01T18:08:08;5.70;66.40
810;DHT22;387;48.772;9.186;2023-03-01T18:10:34;5.70;66.30
810;DHT22;387;48.772;9.186;2023-03-01T18:13:02;5.60;66.30
810;DHT22;387;48.772;9.186;2023-03-01T18:15:28;5.60;66.40
810;DHT22;387;48.772;9.186;2023-03-01T18:17:54;5.50;66.60
810;DHT22;387;48.772;9.186;2023-03-01T18:20:20;5.40;67.20
810;DHT22;387;48.772;9.186;2023-03-01T18:22:46;5.40;67.60
810;DHT22;387;48.772;9.186;2023-03-01T18:25:13;5.30;67.70
810;DHT22;387;48.772;9.186;2023-03-01T18:27:38;5.30;68.00
810;DHT22;387;48.772;9.186;2023-03-01T18:30:06;5.30;68.20
810;DHT22;387;48.772;9.186;2023-03-01T18:32:32;5.20;68.30
810;DHT22;387;48.772;9.186;2023-03-01T18:34:58;5.10;68.50
810;DHT22;387;48.772;9.186;2023-03-01T18:37:23;5.10;68.80
810;DHT22;387;48.772;9.186;2023-03-01T18:39:50;5.10;69.10
810;DHT22;387;48.772;9.186;2023-03-01T18:42:16;5.00;69.20
810;DHT22;387;48.772;9.186;2023-03-01T18:44:47;4.90;69.40
810;DHT22;387;48.772;9.186;2023-03-01T18:47:13;4.90;69.50
810;DHT22;387;48.772;9.186;2023-03-01T18:49:39;4.80;69.80
810;DHT22;387;48.772;9.186;2023-03-01T18:52:04;4.70;69.90
810;DHT22;387;48.772;9.186;2023-03-01T18:54:31;4.60;70.20
810;DHT22;387;48.772;9.186;2023-03-01T18:56:57;4.60;70.40
810;DHT22;387;48.772;9.186;2023-03-01T18:59:23;4.50;70.50
810;DHT22;387;48.772;9.186;2023-03-01T19:01:48;4.50;70.70